createdAt,value
2019-03-29T00:01:44.232Z,11.97
2019-03-29T00:04:14.459Z,10.90
2019-03-29T00:06:44.416Z,11.33
2019-03-29T00:09:14.477Z,12.27
2019-03-29T00:11:44.627Z,11.13
2019-03-29T00:14:15.848Z,11.03
2019-03-29T00:16:46.060Z,10.77
2019-03-29T00:19:16.022Z,10.97
2019-03-29T00:21:45.966Z,11.77
2019-03-29T00:24:15.949Z,10.33
2019-03-29T00:26:45.875Z,10.87
2019-03-29T00:29:15.836Z,11.03
2019-03-29T00:31:45.741Z,10.67
2019-03-29T00:34:16.031Z,10.93
2019-03-29T00:36:46.695Z,10.40
2019-03-29T00:39:16.670Z,12.43
2019-03-29T00:42:05.431Z,11.17
2019-03-29T00:44:35.447Z,11.47
2019-03-29T00:47:05.397Z,12.00
2019-03-29T00:49:35.321Z,12.20
2019-03-29T00:52:05.283Z,13.23
2019-03-29T00:54:35.625Z,13.00
2019-03-29T00:57:05.583Z,12.97
2019-03-29T00:59:35.557Z,13.53
2019-03-29T01:02:05.475Z,12.83
2019-03-29T01:04:35.377Z,14.10
2019-03-29T01:07:05.715Z,14.17
2019-03-29T01:09:35.661Z,14.00
2019-03-29T01:12:06.260Z,13.07
2019-03-29T01:14:36.912Z,12.73
2019-03-29T01:17:06.887Z,12.80
2019-03-29T01:19:36.887Z,11.97
2019-03-29T01:22:06.871Z,12.50
2019-03-29T01:24:36.796Z,12.27
2019-03-29T01:27:06.783Z,12.07
2019-03-29T01:29:36.669Z,11.67
2019-03-29T01:32:07.106Z,12.13
2019-03-29T01:34:37.171Z,11.77
2019-03-29T01:37:07.441Z,11.63
2019-03-29T01:39:37.326Z,11.73
2019-03-29T01:42:07.279Z,12.40
2019-03-29T01:44:37.197Z,11.97
2019-03-29T01:47:07.177Z,11.07
2019-03-29T01:49:37.217Z,11.47
2019-03-29T01:52:07.215Z,11.77
2019-03-29T01:54:37.121Z,11.73
2019-03-29T01:57:07.487Z,11.70
2019-03-29T01:59:37.481Z,11.47
2019-03-29T02:02:07.468Z,10.80
2019-03-29T02:04:37.396Z,11.30
2019-03-29T02:07:07.339Z,10.97
2019-03-29T02:09:37.345Z,11.27
2019-03-29T02:12:07.377Z,11.40
2019-03-29T02:14:37.495Z,11.40
2019-03-29T02:17:07.455Z,10.70
2019-03-29T02:19:37.421Z,11.80
2019-03-29T02:22:07.487Z,11.63
2019-03-29T02:24:38.434Z,12.03
2019-03-29T02:27:08.397Z,11.90
2019-03-29T02:29:38.331Z,11.37
2019-03-29T02:32:08.301Z,11.97
2019-03-29T02:34:38.286Z,12.57
2019-03-29T02:37:08.555Z,12.47
2019-03-29T02:39:38.464Z,11.97
2019-03-29T02:42:08.530Z,11.17
2019-03-29T02:44:38.531Z,12.53
2019-03-29T02:47:08.497Z,13.10
2019-03-29T02:49:39.463Z,11.67
2019-03-29T02:52:10.228Z,11.47
2019-03-29T02:54:40.176Z,12.43
2019-03-29T02:57:10.112Z,13.13
2019-03-29T02:59:40.076Z,12.67
2019-03-29T03:02:10.042Z,12.40
2019-03-29T03:04:39.974Z,12.27
2019-03-29T03:07:09.939Z,11.63
2019-03-29T03:09:39.875Z,12.03
2019-03-29T03:12:09.847Z,11.73
2019-03-29T03:14:39.890Z,12.60
2019-03-29T03:17:10.313Z,12.17
2019-03-29T03:19:40.252Z,12.27
2019-03-29T03:22:10.139Z,12.60
2019-03-29T03:24:40.122Z,12.40
2019-03-29T03:27:10.483Z,12.23
2019-03-29T03:29:40.407Z,13.10
2019-03-29T03:32:10.285Z,12.77
2019-03-29T03:34:40.225Z,12.07
2019-03-29T03:37:10.191Z,12.33
2019-03-29T03:39:40.152Z,12.60
2019-03-29T03:42:10.092Z,11.97
2019-03-29T03:44:40.062Z,12.70
2019-03-29T03:47:10.045Z,11.70
2019-03-29T03:49:40.012Z,12.47
2019-03-29T03:52:10.188Z,13.23
2019-03-29T03:54:40.162Z,13.80
2019-03-29T03:57:12.021Z,12.10
2019-03-29T03:59:43.775Z,12.10
2019-03-29T04:02:14.209Z,13.67
2019-03-29T04:04:44.252Z,12.17
2019-03-29T04:07:14.191Z,13.63
2019-03-29T04:09:49.723Z,12.87
2019-03-29T04:12:15.692Z,12.33
2019-03-29T04:14:46.158Z,13.07
2019-03-29T04:17:16.123Z,13.07
2019-03-29T04:19:46.792Z,13.43
2019-03-29T04:22:16.889Z,12.63
2019-03-29T04:24:46.916Z,13.00
2019-03-29T04:27:16.851Z,12.67
2019-03-29T04:29:47.223Z,13.47
2019-03-29T04:32:17.162Z,13.40
2019-03-29T04:34:47.847Z,13.63
2019-03-29T04:37:17.792Z,13.43
2019-03-29T04:39:47.750Z,13.70
2019-03-29T04:42:17.689Z,13.67
2019-03-29T04:44:47.739Z,13.17
2019-03-29T04:47:17.669Z,13.63
2019-03-29T04:49:47.643Z,13.10
2019-03-29T04:52:17.563Z,13.23
2019-03-29T04:54:47.427Z,14.20
2019-03-29T04:57:17.494Z,14.10
2019-03-29T04:59:47.497Z,13.03
2019-03-29T05:02:17.941Z,12.90
2019-03-29T05:04:47.927Z,13.43
2019-03-29T05:07:17.859Z,14.20
2019-03-29T05:09:47.855Z,15.97
2019-03-29T05:12:17.789Z,15.70
2019-03-29T05:14:47.696Z,15.00
2019-03-29T05:17:17.698Z,14.50
2019-03-29T05:19:47.621Z,13.70
2019-03-29T05:22:17.583Z,13.03
2019-03-29T05:24:47.896Z,14.20
2019-03-29T05:27:18.191Z,15.73
2019-03-29T05:29:48.177Z,15.67
2019-03-29T05:32:18.114Z,16.10
2019-03-29T05:34:48.035Z,15.70
2019-03-29T05:37:17.951Z,15.90
2019-03-29T05:39:47.919Z,18.00
2019-03-29T05:42:17.840Z,16.70
2019-03-29T05:44:47.711Z,16.70
2019-03-29T05:47:17.589Z,15.63
2019-03-29T05:49:47.623Z,15.70
2019-03-29T05:52:17.946Z,15.60
2019-03-29T05:54:47.934Z,15.53
2019-03-29T05:57:17.857Z,15.60
2019-03-29T05:59:48.028Z,16.23
2019-03-29T06:02:17.993Z,15.80
2019-03-29T06:04:48.594Z,17.43
2019-03-29T06:07:18.563Z,17.00
2019-03-29T06:09:48.540Z,15.73
2019-03-29T06:12:18.512Z,16.47
2019-03-29T06:14:48.457Z,16.50
2019-03-29T06:17:18.328Z,16.67
2019-03-29T06:19:48.259Z,16.37
2019-03-29T06:22:18.493Z,17.00
2019-03-29T06:24:48.871Z,16.53
2019-03-29T06:27:18.842Z,17.27
2019-03-29T06:29:48.872Z,17.00
2019-03-29T06:32:18.758Z,16.43
2019-03-29T06:34:48.662Z,16.03
2019-03-29T06:37:20.156Z,17.30
2019-03-29T06:39:51.847Z,16.60
2019-03-29T06:42:21.826Z,18.63
2019-03-29T06:44:51.988Z,18.70
2019-03-29T06:47:22.184Z,17.90
2019-03-29T06:49:52.146Z,18.40
2019-03-29T06:52:22.498Z,18.27
2019-03-29T06:54:52.509Z,18.53
2019-03-29T06:57:22.508Z,19.03
2019-03-29T06:59:52.748Z,19.03
2019-03-29T07:02:22.684Z,18.57
2019-03-29T07:04:52.573Z,18.87
2019-03-29T07:07:22.634Z,19.33
2019-03-29T07:09:53.028Z,17.87
2019-03-29T07:12:22.967Z,18.90
2019-03-29T07:14:53.061Z,19.70
2019-03-29T07:17:23.036Z,18.57
2019-03-29T07:19:53.032Z,17.83
2019-03-29T07:22:23.059Z,17.73
2019-03-29T07:24:52.978Z,18.30
2019-03-29T07:27:22.840Z,18.40
2019-03-29T07:29:52.754Z,18.47
2019-03-29T07:32:22.606Z,18.10
2019-03-29T07:34:52.491Z,17.57
2019-03-29T07:37:22.351Z,17.17
2019-03-29T07:39:53.852Z,17.07
2019-03-29T07:42:24.145Z,16.80
2019-03-29T07:44:54.026Z,17.63
2019-03-29T07:47:24.005Z,15.67
2019-03-29T07:49:54.021Z,15.77
2019-03-29T07:52:25.010Z,15.60
2019-03-29T07:54:54.992Z,15.70
2019-03-29T07:57:24.963Z,15.57
2019-03-29T07:59:54.996Z,15.37
2019-03-29T08:02:24.900Z,16.00
2019-03-29T08:04:54.851Z,15.27
2019-03-29T08:07:27.427Z,15.30
2019-03-29T08:09:56.454Z,15.97
2019-03-29T08:12:26.464Z,15.83
2019-03-29T08:14:56.383Z,15.60
2019-03-29T08:17:26.389Z,15.33
2019-03-29T08:20:24.503Z,15.87
2019-03-29T08:22:28.012Z,14.90
2019-03-29T08:24:59.338Z,14.83
2019-03-29T08:27:29.582Z,13.90
2019-03-29T08:29:59.522Z,16.00
2019-03-29T08:32:29.501Z,16.63
2019-03-29T08:34:59.466Z,16.67
2019-03-29T08:37:29.754Z,17.07
2019-03-29T08:39:59.732Z,17.00
2019-03-29T08:42:29.605Z,17.03
2019-03-29T08:44:59.589Z,17.27
2019-03-29T08:47:29.462Z,17.43
2019-03-29T08:50:02.508Z,17.30
2019-03-29T08:52:32.396Z,18.30
2019-03-29T08:55:02.384Z,17.17
2019-03-29T08:57:32.348Z,17.37
2019-03-29T09:00:02.342Z,16.97
2019-03-29T09:02:32.356Z,17.77
2019-03-29T09:05:02.344Z,18.47
2019-03-29T09:07:44.095Z,18.77
2019-03-29T09:10:04.700Z,18.77
2019-03-29T09:12:34.618Z,18.10
2019-03-29T09:15:04.643Z,19.37
2019-03-29T09:17:34.594Z,19.73
2019-03-29T09:20:04.950Z,20.37
2019-03-29T09:22:34.908Z,20.43
2019-03-29T09:25:05.312Z,21.27
2019-03-29T09:27:35.260Z,21.73
2019-03-29T09:30:05.579Z,20.80
2019-03-29T09:32:35.549Z,21.20
2019-03-29T09:35:05.758Z,20.80
2019-03-29T09:37:35.736Z,22.10
2019-03-29T09:40:06.589Z,21.57
2019-03-29T09:42:36.548Z,22.80
2019-03-29T09:45:07.142Z,20.17
2019-03-29T09:47:40.539Z,20.30
2019-03-29T09:50:10.611Z,21.07
2019-03-29T09:52:40.747Z,22.30
2019-03-29T09:55:11.604Z,20.57
2019-03-29T09:57:41.600Z,21.93
2019-03-29T10:00:22.411Z,21.60
2019-03-29T10:02:45.078Z,21.67
2019-03-29T10:05:15.388Z,21.87
2019-03-29T10:07:45.824Z,21.83
2019-03-29T10:10:16.224Z,21.57
2019-03-29T10:12:46.178Z,22.07
2019-03-29T10:15:16.275Z,21.43
2019-03-29T10:17:46.317Z,23.00
2019-03-29T10:20:16.732Z,22.30
2019-03-29T10:22:46.691Z,22.50
2019-03-29T10:25:19.807Z,21.90
2019-03-29T10:27:48.566Z,21.37
2019-03-29T10:30:39.686Z,22.33
2019-03-29T10:33:09.963Z,22.37
2019-03-29T10:35:51.721Z,22.40
2019-03-29T10:38:11.659Z,22.17
2019-03-29T10:40:41.864Z,22.60
2019-03-29T10:43:11.833Z,23.23
2019-03-29T10:45:41.855Z,23.67
2019-03-29T10:48:12.201Z,23.77
2019-03-29T10:50:42.210Z,22.97
2019-03-29T10:53:12.216Z,22.87
2019-03-29T10:55:42.197Z,22.30
2019-03-29T10:58:12.192Z,23.47
2019-03-29T11:00:42.696Z,23.80
2019-03-29T11:03:12.644Z,24.20
2019-03-29T11:05:42.672Z,23.93
2019-03-29T11:08:12.648Z,23.57
2019-03-29T11:10:42.625Z,22.70
2019-03-29T11:13:14.102Z,24.07
2019-03-29T11:15:44.649Z,23.53
2019-03-29T11:18:14.600Z,24.50
2019-03-29T11:20:44.458Z,23.47
2019-03-29T11:23:14.372Z,23.73
2019-03-29T11:25:44.310Z,23.13
2019-03-29T11:28:14.308Z,22.97
2019-03-29T11:30:44.188Z,23.77
2019-03-29T11:33:14.256Z,25.50
2019-03-29T11:35:44.219Z,24.37
2019-03-29T11:38:14.194Z,24.93
2019-03-29T11:40:44.236Z,24.57
2019-03-29T11:43:25.976Z,24.50
2019-03-29T11:45:45.765Z,25.80
2019-03-29T11:48:15.720Z,23.90
2019-03-29T11:50:45.630Z,25.07
2019-03-29T11:53:15.615Z,25.20
2019-03-29T11:55:45.524Z,24.20
2019-03-29T11:58:15.629Z,25.67
2019-03-29T12:00:45.844Z,24.00
2019-03-29T12:03:15.718Z,24.97
2019-03-29T12:05:46.083Z,24.53
2019-03-29T12:08:16.043Z,23.80
2019-03-29T12:10:46.271Z,24.30
2019-03-29T12:13:16.785Z,23.47
2019-03-29T12:15:47.076Z,24.17
2019-03-29T12:18:17.130Z,24.00
2019-03-29T12:20:47.003Z,23.93
2019-03-29T12:23:16.961Z,22.87
2019-03-29T12:25:46.828Z,24.37
2019-03-29T12:28:16.758Z,23.93
2019-03-29T12:30:46.866Z,24.10
2019-03-29T12:33:16.832Z,25.30
2019-03-29T12:35:46.829Z,24.47
2019-03-29T12:38:16.826Z,24.13
2019-03-29T12:40:47.184Z,24.47
2019-03-29T12:43:17.247Z,25.07
2019-03-29T12:45:47.144Z,24.00
2019-03-29T12:48:17.084Z,24.57
2019-03-29T12:50:47.052Z,23.43
2019-03-29T12:53:17.083Z,24.13
2019-03-29T12:55:47.775Z,25.37
2019-03-29T12:58:17.678Z,23.97
2019-03-29T13:00:47.994Z,24.07
2019-03-29T13:03:18.178Z,23.93
2019-03-29T13:05:48.154Z,24.23
2019-03-29T13:08:18.123Z,24.63
2019-03-29T13:10:48.141Z,25.10
2019-03-29T13:13:18.028Z,23.03
2019-03-29T13:15:48.613Z,24.57
2019-03-29T13:18:18.641Z,23.93
2019-03-29T13:20:48.689Z,25.23
2019-03-29T13:23:18.771Z,23.60
2019-03-29T13:25:48.777Z,25.43
2019-03-29T13:28:19.029Z,24.47
2019-03-29T13:30:49.021Z,24.23
2019-03-29T13:33:20.596Z,24.50
2019-03-29T13:35:50.600Z,23.97
2019-03-29T13:38:20.929Z,25.23
2019-03-29T13:40:50.925Z,24.13
2019-03-29T13:43:21.269Z,25.40
2019-03-29T13:45:51.214Z,25.80
2019-03-29T13:48:21.171Z,25.03
2019-03-29T13:50:51.538Z,26.00
2019-03-29T13:53:21.697Z,26.43
2019-03-29T13:55:51.633Z,26.13
2019-03-29T13:58:21.659Z,25.90
2019-03-29T14:00:51.618Z,26.10
2019-03-29T14:03:21.740Z,37.13
2019-03-29T14:05:51.715Z,26.37
2019-03-29T14:08:21.837Z,27.03
2019-03-29T14:10:51.687Z,27.30
2019-03-29T14:13:21.855Z,28.13
2019-03-29T14:15:52.207Z,27.13
2019-03-29T14:18:22.094Z,27.87
2019-03-29T14:20:52.203Z,28.40
2019-03-29T14:23:22.093Z,27.07
2019-03-29T14:25:52.059Z,27.33
2019-03-29T14:28:22.337Z,28.67
2019-03-29T14:30:52.315Z,28.40
2019-03-29T14:33:22.272Z,27.70
2019-03-29T14:35:52.278Z,28.57
2019-03-29T14:38:22.219Z,29.20
2019-03-29T14:40:52.371Z,28.83
2019-03-29T14:43:22.840Z,27.87
2019-03-29T14:45:52.841Z,28.33
2019-03-29T14:48:22.779Z,29.00
2019-03-29T14:50:52.877Z,27.57
2019-03-29T14:53:22.803Z,28.90
2019-03-29T14:55:53.105Z,29.20
2019-03-29T14:58:23.109Z,30.37
2019-03-29T15:00:53.069Z,29.40
2019-03-29T15:03:23.116Z,29.67
2019-03-29T15:05:53.093Z,28.80
2019-03-29T15:08:23.028Z,27.87
2019-03-29T15:10:53.211Z,28.17
2019-03-29T15:13:23.159Z,29.00
2019-03-29T15:15:53.743Z,27.67
2019-03-29T15:18:23.972Z,27.33
2019-03-29T15:20:54.403Z,28.10
2019-03-29T15:23:24.564Z,28.90
2019-03-29T15:25:54.763Z,28.27
2019-03-29T15:28:24.684Z,28.93
2019-03-29T15:30:54.893Z,29.30
2019-03-29T15:33:25.149Z,28.93
2019-03-29T15:36:13.893Z,28.33
2019-03-29T15:38:44.645Z,28.47
2019-03-29T15:41:14.683Z,28.90
2019-03-29T15:43:44.803Z,28.03
2019-03-29T15:46:14.897Z,27.33
2019-03-29T15:48:45.763Z,28.77
2019-03-29T15:51:15.833Z,27.53
2019-03-29T15:53:45.860Z,27.53
2019-03-29T15:56:15.828Z,27.73
2019-03-29T15:58:45.886Z,27.40
2019-03-29T16:01:16.035Z,28.97
2019-03-29T16:03:46.234Z,28.33
2019-03-29T16:06:16.386Z,26.87
2019-03-29T16:08:46.296Z,28.97
2019-03-29T16:11:17.474Z,27.97
2019-03-29T16:13:47.525Z,27.40
2019-03-29T16:16:17.666Z,26.77
2019-03-29T16:18:47.559Z,28.13
2019-03-29T16:21:17.565Z,27.20
2019-03-29T16:23:47.971Z,27.93
2019-03-29T16:26:17.976Z,28.20
2019-03-29T16:28:47.939Z,28.37
2019-03-29T16:31:17.937Z,27.37
2019-03-29T16:33:47.887Z,27.97
2019-03-29T16:36:18.062Z,27.67
2019-03-29T16:38:48.081Z,28.67
2019-03-29T16:41:18.140Z,28.60
2019-03-29T16:43:48.095Z,29.90
2019-03-29T16:46:17.957Z,28.67
2019-03-29T16:48:47.989Z,27.30
2019-03-29T16:51:17.998Z,27.03
2019-03-29T16:53:48.406Z,27.10
2019-03-29T16:56:18.303Z,26.47
2019-03-29T16:58:48.634Z,27.17
2019-03-29T17:01:18.554Z,26.43
2019-03-29T17:03:48.587Z,27.83
2019-03-29T17:06:18.671Z,28.70
2019-03-29T17:08:48.668Z,27.57
2019-03-29T17:11:18.677Z,27.00
2019-03-29T17:13:48.665Z,27.57
2019-03-29T17:16:29.835Z,27.17
2019-03-29T17:18:50.256Z,26.87
2019-03-29T17:21:20.191Z,27.03
2019-03-29T17:23:52.561Z,27.07
2019-03-29T17:26:21.759Z,27.33
2019-03-29T17:28:51.767Z,27.37
2019-03-29T17:31:21.743Z,27.83
2019-03-29T17:33:51.729Z,27.70
2019-03-29T17:36:21.741Z,28.20
2019-03-29T17:38:51.710Z,27.27
2019-03-29T17:41:21.749Z,28.23
2019-03-29T17:43:51.607Z,29.13
2019-03-29T17:46:21.627Z,27.53
2019-03-29T17:48:51.576Z,29.10
2019-03-29T17:51:23.030Z,30.17
2019-03-29T17:53:52.974Z,29.67
2019-03-29T17:56:22.925Z,29.20
2019-03-29T17:58:53.011Z,28.40
2019-03-29T18:01:22.926Z,29.07
2019-03-29T18:03:52.896Z,30.33
2019-03-29T18:06:22.887Z,30.43
2019-03-29T18:08:52.736Z,29.53
2019-03-29T18:11:22.643Z,29.90
2019-03-29T18:13:52.747Z,29.33
2019-03-29T18:16:30.392Z,28.40
2019-03-29T18:18:55.507Z,31.20
2019-03-29T18:21:25.469Z,28.60
2019-03-29T18:23:55.335Z,28.00
2019-03-29T18:26:25.305Z,28.80
2019-03-29T18:28:55.264Z,29.27
2019-03-29T18:31:25.332Z,50.13
2019-03-29T18:33:56.604Z,31.00
2019-03-29T18:36:26.941Z,32.73
2019-03-29T18:38:57.617Z,30.53
2019-03-29T18:41:27.855Z,29.00
2019-03-29T18:43:57.785Z,29.60
2019-03-29T18:46:27.743Z,31.40
2019-03-29T18:48:57.652Z,34.97
2019-03-29T18:51:27.608Z,37.00
2019-03-29T18:53:58.009Z,35.47
2019-03-29T18:56:28.064Z,35.67
2019-03-29T18:58:58.095Z,36.77
2019-03-29T19:01:28.115Z,35.37
2019-03-29T19:03:58.500Z,36.87
2019-03-29T19:06:28.483Z,39.20
2019-03-29T19:08:58.420Z,38.80
2019-03-29T19:11:29.709Z,39.17
2019-03-29T19:13:59.784Z,39.00
2019-03-29T19:16:29.719Z,40.90
2019-03-29T19:19:10.070Z,40.90
2019-03-29T19:21:31.463Z,42.37
2019-03-29T19:24:01.461Z,40.27
2019-03-29T19:26:31.502Z,42.30
2019-03-29T19:29:01.440Z,41.40
2019-03-29T19:31:31.445Z,42.87
2019-03-29T19:34:01.463Z,42.77
2019-03-29T19:36:31.768Z,43.13
2019-03-29T19:39:02.546Z,46.30
2019-03-29T19:41:32.889Z,43.93
2019-03-29T19:44:03.165Z,43.60
2019-03-29T19:46:33.185Z,45.03
2019-03-29T19:49:03.258Z,45.50
2019-03-29T19:51:33.133Z,45.43
2019-03-29T19:54:07.520Z,43.90
2019-03-29T19:56:34.749Z,44.27
2019-03-29T19:59:04.812Z,44.40
2019-03-29T20:01:36.164Z,47.00
2019-03-29T20:04:09.462Z,43.40
2019-03-29T20:06:37.893Z,44.67
2019-03-29T20:09:09.574Z,44.63
2019-03-29T20:11:39.784Z,44.10
2019-03-29T20:14:09.722Z,45.20
2019-03-29T20:16:39.690Z,43.50
2019-03-29T20:19:09.825Z,43.87
2019-03-29T20:21:39.812Z,44.70
2019-03-29T20:24:09.777Z,45.43
2019-03-29T20:26:39.867Z,45.40
2019-03-29T20:29:09.860Z,44.23
2019-03-29T20:31:40.192Z,43.83
2019-03-29T20:34:10.544Z,43.87
2019-03-29T20:36:40.580Z,45.23
2019-03-29T20:39:10.954Z,43.67
2019-03-29T20:41:41.005Z,44.53
2019-03-29T20:44:10.943Z,44.73
2019-03-29T20:46:41.186Z,45.60
2019-03-29T20:49:11.224Z,46.03
2019-03-29T20:51:41.494Z,45.93
2019-03-29T20:54:11.446Z,43.47
2019-03-29T20:56:41.440Z,45.03
2019-03-29T20:59:11.711Z,43.33
2019-03-29T21:01:41.700Z,44.27
2019-03-29T21:04:11.692Z,44.13
2019-03-29T21:06:41.686Z,45.53
2019-03-29T21:09:11.661Z,45.77
2019-03-29T21:11:41.628Z,45.23
2019-03-29T21:14:11.713Z,45.63
2019-03-29T21:16:41.713Z,46.90
2019-03-29T21:19:12.080Z,47.07
2019-03-29T21:21:42.054Z,45.27
2019-03-29T21:24:12.746Z,43.57
2019-03-29T21:26:48.390Z,43.60
2019-03-29T21:29:18.287Z,43.33
2019-03-29T21:31:48.272Z,45.63
2019-03-29T21:34:18.310Z,43.77
2019-03-29T21:36:48.413Z,44.90
2019-03-29T21:39:18.810Z,45.27
2019-03-29T21:41:48.804Z,43.60
2019-03-29T21:44:19.244Z,44.17
2019-03-29T21:46:49.265Z,43.60
2019-03-29T21:49:19.259Z,43.00
2019-03-29T21:51:49.166Z,43.13
2019-03-29T21:54:19.451Z,44.67
2019-03-29T21:56:49.817Z,41.90
2019-03-29T21:59:19.819Z,40.90
2019-03-29T22:01:49.695Z,42.70
2019-03-29T22:04:19.597Z,42.90
2019-03-29T22:06:49.877Z,42.77
2019-03-29T22:09:19.924Z,41.13
2019-03-29T22:11:49.897Z,41.03
2019-03-29T22:14:19.882Z,42.37
2019-03-29T22:16:49.917Z,41.10
2019-03-29T22:19:19.919Z,41.20
2019-03-29T22:21:49.826Z,40.17
2019-03-29T22:24:19.850Z,40.00
2019-03-29T22:26:49.817Z,41.80
2019-03-29T22:29:19.680Z,41.23
2019-03-29T22:31:49.608Z,41.60
2019-03-29T22:34:19.520Z,42.60
2019-03-29T22:36:49.385Z,43.97
2019-03-29T22:39:19.362Z,45.20
2019-03-29T22:41:49.370Z,42.37
2019-03-29T22:44:19.430Z,42.50
2019-03-29T22:46:49.365Z,45.40
2019-03-29T22:49:19.412Z,42.80
2019-03-29T22:51:49.307Z,42.37
2019-03-29T22:54:19.301Z,40.63
2019-03-29T22:56:49.247Z,40.60
2019-03-29T22:59:19.194Z,43.23
2019-03-29T23:01:49.604Z,43.67
2019-03-29T23:04:19.455Z,42.90
2019-03-29T23:06:49.433Z,42.47
2019-03-29T23:09:19.652Z,42.73
2019-03-29T23:11:49.563Z,40.77
2019-03-29T23:14:19.466Z,39.73
2019-03-29T23:16:49.420Z,42.03
2019-03-29T23:19:19.365Z,41.47
2019-03-29T23:21:49.341Z,41.43
2019-03-29T23:24:19.411Z,42.63
2019-03-29T23:26:49.394Z,44.20
2019-03-29T23:29:19.455Z,40.87
2019-03-29T23:31:49.570Z,41.27
2019-03-29T23:34:19.583Z,42.00
2019-03-29T23:36:49.569Z,44.63
2019-03-29T23:39:20.185Z,42.17
2019-03-29T23:41:50.153Z,44.70
2019-03-29T23:44:20.736Z,45.30
2019-03-29T23:46:50.629Z,44.10
2019-03-29T23:49:21.555Z,42.60
2019-03-29T23:51:51.732Z,43.63
2019-03-29T23:54:21.735Z,43.30
2019-03-29T23:56:51.674Z,43.17
2019-03-29T23:59:21.683Z,40.70
